createdAt,value
2019-05-13T00:00:30.757Z,61.98
2019-05-13T00:01:30.753Z,60.02
2019-05-13T00:02:30.742Z,60.41
2019-05-13T00:03:30.730Z,58.32
2019-05-13T00:04:30.717Z,58.60
2019-05-13T00:05:30.702Z,58.40
2019-05-13T00:06:30.711Z,56.93
2019-05-13T00:07:30.678Z,56.72
2019-05-13T00:08:30.683Z,56.41
2019-05-13T00:09:30.670Z,56.21
2019-05-13T00:10:30.653Z,55.98
2019-05-13T00:11:30.640Z,56.08
2019-05-13T00:12:30.657Z,55.87
2019-05-13T00:13:30.649Z,56.29
2019-05-13T00:14:30.601Z,56.00
2019-05-13T00:15:30.599Z,56.10
2019-05-13T00:16:30.609Z,55.77
2019-05-13T00:17:30.574Z,55.90
2019-05-13T00:18:30.564Z,56.41
2019-05-13T00:19:30.564Z,56.31
2019-05-13T00:20:30.535Z,55.46
2019-05-13T00:21:30.521Z,56.18
2019-05-13T00:22:30.511Z,56.21
2019-05-13T00:23:30.507Z,56.31
2019-05-13T00:24:30.498Z,55.90
2019-05-13T00:25:30.492Z,54.97
2019-05-13T00:26:30.468Z,54.94
2019-05-13T00:27:30.459Z,54.94
2019-05-13T00:28:30.445Z,54.94
2019-05-13T00:29:30.492Z,54.72
2019-05-13T00:30:30.428Z,54.30
2019-05-13T00:31:30.422Z,54.43
2019-05-13T00:32:30.408Z,54.94
2019-05-13T00:33:30.395Z,54.72
2019-05-13T00:34:30.385Z,54.22
2019-05-13T00:35:30.379Z,54.82
2019-05-13T00:36:30.364Z,54.30
2019-05-13T00:37:30.349Z,54.00
2019-05-13T00:38:30.335Z,55.02
2019-05-13T00:39:30.321Z,54.74
2019-05-13T00:40:30.326Z,55.36
2019-05-13T00:41:30.303Z,54.64
2019-05-13T00:42:30.303Z,54.74
2019-05-13T00:43:30.278Z,55.36
2019-05-13T00:44:30.277Z,56.31
2019-05-13T00:45:30.273Z,55.90
2019-05-13T00:46:30.252Z,57.06
2019-05-13T00:47:30.246Z,56.85
2019-05-13T00:48:30.230Z,57.47
2019-05-13T00:49:30.215Z,58.32
2019-05-13T00:50:30.222Z,57.50
2019-05-13T00:51:30.201Z,57.91
2019-05-13T00:52:30.205Z,57.81
2019-05-13T00:53:30.174Z,57.81
2019-05-13T00:54:30.160Z,58.01
2019-05-13T00:55:30.164Z,57.70
2019-05-13T00:56:30.154Z,57.70
2019-05-13T00:57:30.126Z,56.98
2019-05-13T00:58:30.116Z,57.18
2019-05-13T00:59:30.111Z,57.39
2019-05-13T01:00:30.140Z,57.70
2019-05-13T01:01:30.083Z,57.18
2019-05-13T01:02:30.068Z,56.88
2019-05-13T01:03:30.061Z,58.19
2019-05-13T01:04:30.055Z,57.47
2019-05-13T01:05:30.061Z,57.68
2019-05-13T01:06:30.041Z,57.70
2019-05-13T01:07:30.044Z,57.50
2019-05-13T01:08:30.006Z,57.88
2019-05-13T01:09:29.999Z,58.01
2019-05-13T01:10:29.984Z,58.01
2019-05-13T01:11:29.975Z,58.01
2019-05-13T01:12:29.973Z,58.73
2019-05-13T01:13:29.962Z,59.45
2019-05-13T01:14:29.935Z,58.42
2019-05-13T01:15:29.924Z,58.32
2019-05-13T01:16:29.956Z,58.53
2019-05-13T01:17:29.909Z,58.73
2019-05-13T01:18:29.897Z,58.63
2019-05-13T01:19:29.897Z,58.73
2019-05-13T01:20:29.872Z,59.04
2019-05-13T01:21:29.863Z,59.25
2019-05-13T01:22:29.872Z,59.04
2019-05-13T01:23:29.885Z,59.35
2019-05-13T01:24:29.836Z,58.94
2019-05-13T01:25:29.816Z,59.04
2019-05-13T01:26:29.801Z,59.77
2019-05-13T01:27:29.804Z,60.07
2019-05-13T01:28:29.782Z,59.25
2019-05-13T01:29:29.795Z,59.04
2019-05-13T01:30:29.767Z,59.63
2019-05-13T01:31:29.756Z,59.97
2019-05-13T01:32:29.737Z,59.56
2019-05-13T01:33:29.727Z,59.56
2019-05-13T01:34:29.712Z,59.66
2019-05-13T01:35:29.708Z,60.49
2019-05-13T01:36:29.688Z,60.17
2019-05-13T01:37:39.975Z,60.28
2019-05-13T01:38:30.664Z,61.03
2019-05-13T01:39:29.684Z,61.03
2019-05-13T01:40:29.651Z,60.82
2019-05-13T01:41:29.651Z,61.13
2019-05-13T01:42:29.627Z,61.36
2019-05-13T01:43:29.614Z,61.68
2019-05-13T01:44:29.604Z,61.98
2019-05-13T01:45:29.631Z,61.78
2019-05-13T01:46:29.582Z,61.98
2019-05-13T01:47:29.572Z,62.19
2019-05-13T01:48:29.556Z,61.78
2019-05-13T01:49:29.549Z,62.92
2019-05-13T01:50:29.535Z,62.40
2019-05-13T01:51:29.534Z,62.81
2019-05-13T01:52:29.514Z,63.22
2019-05-13T01:53:29.500Z,63.56
2019-05-13T01:54:29.497Z,63.67
2019-05-13T01:55:29.495Z,63.04
2019-05-13T01:56:29.468Z,63.67
2019-05-13T01:57:29.455Z,63.15
2019-05-13T01:58:29.451Z,63.25
2019-05-13T01:59:29.437Z,63.77
2019-05-13T02:00:29.463Z,63.64
2019-05-13T02:01:29.411Z,63.25
2019-05-13T02:02:29.397Z,63.46
2019-05-13T02:03:29.392Z,63.35
2019-05-13T02:04:29.376Z,63.56
2019-05-13T02:05:29.358Z,63.97
2019-05-13T02:06:29.482Z,63.97
2019-05-13T02:07:29.342Z,64.39
2019-05-13T02:08:29.324Z,63.87
2019-05-13T02:09:29.320Z,64.18
2019-05-13T02:10:29.312Z,63.56
2019-05-13T02:11:29.298Z,63.97
2019-05-13T02:12:29.318Z,64.18
2019-05-13T02:13:29.278Z,64.90
2019-05-13T02:14:29.263Z,65.00
2019-05-13T02:15:29.253Z,65.11
2019-05-13T02:16:29.241Z,64.83
2019-05-13T02:17:29.248Z,64.93
2019-05-13T02:18:29.239Z,64.62
2019-05-13T02:19:29.207Z,64.83
2019-05-13T02:20:29.199Z,64.93
2019-05-13T02:21:29.188Z,65.24
2019-05-13T02:22:29.199Z,65.34
2019-05-13T02:23:29.152Z,65.97
2019-05-13T02:24:29.147Z,65.66
2019-05-13T02:25:29.132Z,65.58
2019-05-13T02:26:29.130Z,65.58
2019-05-13T02:27:29.147Z,65.76
2019-05-13T02:28:29.133Z,65.76
2019-05-13T02:29:29.094Z,65.45
2019-05-13T02:30:29.085Z,65.55
2019-05-13T02:31:41.519Z,65.76
2019-05-13T02:32:32.912Z,65.45
2019-05-13T02:33:29.054Z,65.66
2019-05-13T02:34:31.888Z,65.76
2019-05-13T02:35:32.253Z,65.86
2019-05-13T02:36:29.037Z,66.07
2019-05-13T02:37:29.691Z,65.76
2019-05-13T02:38:31.843Z,65.76
2019-05-13T02:39:32.815Z,65.97
2019-05-13T02:40:28.970Z,66.51
2019-05-13T02:41:28.961Z,66.69
2019-05-13T02:42:28.946Z,66.58
2019-05-13T02:43:28.975Z,66.79
2019-05-13T02:44:28.924Z,66.72
2019-05-13T02:45:28.914Z,66.58
2019-05-13T02:46:28.943Z,66.72
2019-05-13T02:47:28.894Z,66.93
2019-05-13T02:48:28.908Z,66.93
2019-05-13T02:49:32.137Z,66.82
2019-05-13T02:50:28.866Z,67.13
2019-05-13T02:51:28.849Z,66.82
2019-05-13T02:52:28.840Z,67.34
2019-05-13T02:53:28.840Z,67.44
2019-05-13T02:54:28.837Z,67.44
2019-05-13T02:55:28.812Z,67.99
2019-05-13T02:56:28.803Z,67.78
2019-05-13T02:57:32.245Z,67.96
2019-05-13T02:58:28.773Z,67.88
2019-05-13T02:59:28.811Z,67.99
2019-05-13T03:00:28.755Z,67.78
2019-05-13T03:01:28.738Z,67.88
2019-05-13T03:02:28.742Z,68.51
2019-05-13T03:03:28.748Z,68.61
2019-05-13T03:04:32.323Z,68.19
2019-05-13T03:05:28.708Z,68.61
2019-05-13T03:06:28.700Z,68.71
2019-05-13T03:07:28.683Z,68.61
2019-05-13T03:08:46.248Z,69.12
2019-05-13T03:09:32.455Z,69.33
2019-05-13T03:10:28.656Z,69.43
2019-05-13T03:11:28.643Z,69.43
2019-05-13T03:12:32.004Z,69.33
2019-05-13T03:13:28.607Z,69.74
2019-05-13T03:14:28.599Z,69.54
2019-05-13T03:15:28.602Z,69.12
2019-05-13T03:16:28.608Z,69.33
2019-05-13T03:17:28.562Z,69.54
2019-05-13T03:18:28.556Z,69.23
2019-05-13T03:19:28.548Z,68.82
2019-05-13T03:20:28.563Z,69.85
2019-05-13T03:21:28.521Z,69.85
2019-05-13T03:22:28.511Z,69.74
2019-05-13T03:23:28.502Z,69.54
2019-05-13T03:24:28.485Z,70.26
2019-05-13T03:25:28.480Z,69.85
2019-05-13T03:26:28.475Z,70.26
2019-05-13T03:27:28.454Z,70.37
2019-05-13T03:28:28.443Z,70.67
2019-05-13T03:29:28.446Z,70.29
2019-05-13T03:30:28.425Z,70.16
2019-05-13T03:31:28.467Z,69.95
2019-05-13T03:32:35.720Z,70.50
2019-05-13T03:33:29.407Z,70.06
2019-05-13T03:34:28.386Z,70.98
2019-05-13T03:35:28.413Z,70.71
2019-05-13T03:36:28.382Z,70.37
2019-05-13T03:37:28.356Z,70.81
2019-05-13T03:38:28.337Z,70.50
2019-05-13T03:39:28.337Z,70.78
2019-05-13T03:40:28.318Z,70.47
2019-05-13T03:41:28.318Z,70.40
2019-05-13T03:42:28.292Z,70.71
2019-05-13T03:43:28.283Z,71.12
2019-05-13T03:44:28.269Z,70.92
2019-05-13T03:45:28.256Z,71.74
2019-05-13T03:46:28.261Z,71.64
2019-05-13T03:47:28.254Z,71.19
2019-05-13T03:48:28.237Z,71.22
2019-05-13T03:49:28.215Z,71.33
2019-05-13T03:50:33.366Z,71.74
2019-05-13T03:51:32.467Z,71.53
2019-05-13T03:52:28.233Z,71.64
2019-05-13T03:53:28.170Z,71.92
2019-05-13T03:54:28.158Z,71.71
2019-05-13T03:55:28.142Z,71.64
2019-05-13T03:56:28.139Z,71.40
2019-05-13T03:57:28.123Z,71.61
2019-05-13T03:58:28.144Z,71.30
2019-05-13T03:59:28.108Z,71.40
2019-05-13T04:00:28.096Z,71.71
2019-05-13T04:01:28.082Z,71.50
2019-05-13T04:02:28.073Z,71.19
2019-05-13T04:03:28.064Z,72.02
2019-05-13T04:04:28.066Z,71.61
2019-05-13T04:05:28.061Z,71.61
2019-05-13T04:06:28.020Z,71.71
2019-05-13T04:07:28.009Z,71.61
2019-05-13T04:08:27.999Z,71.50
2019-05-13T04:09:31.527Z,71.92
2019-05-13T04:10:28.990Z,71.50
2019-05-13T04:11:27.966Z,71.81
2019-05-13T04:12:28.641Z,71.61
2019-05-13T04:13:27.952Z,71.50
2019-05-13T04:14:27.932Z,71.81
2019-05-13T04:15:27.934Z,71.30
2019-05-13T04:16:27.919Z,72.02
2019-05-13T04:17:27.901Z,72.12
2019-05-13T04:18:27.893Z,72.22
2019-05-13T04:19:27.885Z,72.12
2019-05-13T04:20:27.878Z,72.12
2019-05-13T04:21:27.875Z,72.43
2019-05-13T04:22:27.848Z,73.16
2019-05-13T04:23:27.845Z,73.05
2019-05-13T04:24:27.831Z,73.05
2019-05-13T04:25:27.815Z,73.16
2019-05-13T04:26:28.117Z,73.05
2019-05-13T04:27:28.046Z,73.05
2019-05-13T04:28:27.960Z,72.95
2019-05-13T04:29:27.772Z,73.16
2019-05-13T04:30:27.778Z,73.26
2019-05-13T04:31:28.075Z,73.02
2019-05-13T04:32:29.072Z,72.95
2019-05-13T04:33:27.946Z,72.95
2019-05-13T04:34:27.855Z,73.16
2019-05-13T04:35:27.725Z,73.12
2019-05-13T04:36:27.750Z,73.02
2019-05-13T04:37:27.770Z,73.33
2019-05-13T04:38:27.727Z,73.22
2019-05-13T04:39:44.751Z,73.02
2019-05-13T04:40:28.733Z,73.02
2019-05-13T04:41:27.661Z,73.02
2019-05-13T04:42:27.706Z,73.12
2019-05-13T04:43:30.620Z,72.99
2019-05-13T04:44:32.027Z,71.85
2019-05-13T04:45:27.647Z,71.33
2019-05-13T04:46:27.591Z,71.95
2019-05-13T04:47:27.574Z,71.41
2019-05-13T04:48:27.617Z,71.61
2019-05-13T04:49:27.563Z,71.41
2019-05-13T04:50:27.541Z,71.06
2019-05-13T04:51:27.577Z,70.96
2019-05-13T04:52:27.526Z,70.34
2019-05-13T04:53:27.511Z,69.72
2019-05-13T04:54:27.537Z,70.65
2019-05-13T04:55:27.488Z,70.34
2019-05-13T04:56:27.471Z,70.34
2019-05-13T04:57:27.549Z,69.89
2019-05-13T04:58:27.456Z,70.72
2019-05-13T04:59:27.437Z,70.62
2019-05-13T05:00:27.442Z,70.72
2019-05-13T05:01:27.407Z,70.31
2019-05-13T05:02:36.739Z,70.10
2019-05-13T05:03:32.868Z,70.37
2019-05-13T05:04:31.061Z,70.89
2019-05-13T05:05:28.394Z,70.28
2019-05-13T05:06:27.362Z,70.28
2019-05-13T05:07:27.340Z,70.07
2019-05-13T05:08:27.337Z,69.76
2019-05-13T05:09:27.352Z,69.76
2019-05-13T05:10:34.678Z,69.93
2019-05-13T05:11:28.295Z,68.93
2019-05-13T05:12:27.291Z,69.62
2019-05-13T05:13:27.279Z,69.52
2019-05-13T05:14:27.265Z,69.62
2019-05-13T05:15:27.482Z,69.62
2019-05-13T05:16:27.283Z,69.18
2019-05-13T05:17:27.286Z,69.62
2019-05-13T05:18:27.229Z,69.28
2019-05-13T05:19:27.210Z,68.77
2019-05-13T05:20:27.272Z,69.28
2019-05-13T05:21:27.211Z,69.49
2019-05-13T05:22:27.210Z,69.28
2019-05-13T05:23:27.187Z,69.70
2019-05-13T05:24:27.199Z,68.98
2019-05-13T05:25:29.256Z,69.46
2019-05-13T05:26:27.128Z,69.15
2019-05-13T05:27:27.120Z,69.15
2019-05-13T05:28:27.110Z,69.25
2019-05-13T05:29:27.100Z,69.66
2019-05-13T05:30:27.127Z,68.84
2019-05-13T05:31:27.081Z,68.40
2019-05-13T05:32:27.075Z,68.32
2019-05-13T05:33:27.068Z,67.88
2019-05-13T05:34:27.052Z,67.36
2019-05-13T05:35:27.036Z,67.06
2019-05-13T05:36:27.103Z,67.57
2019-05-13T05:37:27.012Z,67.78
2019-05-13T05:38:26.996Z,68.37
2019-05-13T05:39:26.984Z,67.54
2019-05-13T05:40:31.209Z,67.23
2019-05-13T05:41:26.971Z,67.33
2019-05-13T05:42:26.987Z,67.44
2019-05-13T05:43:26.945Z,66.61
2019-05-13T05:44:26.932Z,67.03
2019-05-13T05:45:26.923Z,67.30
2019-05-13T05:46:26.937Z,66.58
2019-05-13T05:47:26.897Z,66.69
2019-05-13T05:48:26.922Z,67.10
2019-05-13T05:49:26.876Z,66.79
2019-05-13T05:50:26.904Z,66.28
2019-05-13T05:51:26.857Z,66.38
2019-05-13T05:52:26.884Z,66.38
2019-05-13T05:53:26.839Z,66.35
2019-05-13T05:54:26.889Z,66.55
2019-05-13T05:55:26.812Z,66.45
2019-05-13T05:56:26.807Z,66.35
2019-05-13T05:57:26.793Z,66.35
2019-05-13T05:58:26.800Z,66.14
2019-05-13T05:59:26.763Z,66.45
2019-05-13T06:00:26.817Z,66.35
2019-05-13T06:01:26.740Z,66.93
2019-05-13T06:02:26.733Z,66.22
2019-05-13T06:03:26.716Z,66.63
2019-05-13T06:04:26.717Z,66.08
2019-05-13T06:05:26.711Z,65.60
2019-05-13T06:06:26.730Z,65.57
2019-05-13T06:07:26.710Z,65.67
2019-05-13T06:08:26.732Z,65.67
2019-05-13T06:09:26.709Z,65.33
2019-05-13T06:10:26.639Z,64.61
2019-05-13T06:11:26.744Z,64.00
2019-05-13T06:12:26.719Z,63.79
2019-05-13T06:13:26.625Z,64.31
2019-05-13T06:14:26.602Z,65.12
2019-05-13T06:15:26.586Z,63.79
2019-05-13T06:16:26.594Z,64.00
2019-05-13T06:17:26.572Z,63.90
2019-05-13T06:18:26.586Z,63.69
2019-05-13T06:19:26.595Z,64.51
2019-05-13T06:20:26.565Z,64.61
2019-05-13T06:21:26.525Z,64.61
2019-05-13T06:22:26.510Z,64.17
2019-05-13T06:23:26.503Z,64.38
2019-05-13T06:24:26.987Z,63.25
2019-05-13T06:25:26.478Z,63.25
2019-05-13T06:26:26.467Z,64.17
2019-05-13T06:27:26.449Z,64.48
2019-05-13T06:28:26.460Z,64.17
2019-05-13T06:29:26.444Z,63.02
2019-05-13T06:30:26.518Z,63.46
2019-05-13T06:31:26.416Z,63.12
2019-05-13T06:32:26.732Z,63.64
2019-05-13T06:33:26.382Z,63.84
2019-05-13T06:34:26.376Z,63.02
2019-05-13T06:35:26.371Z,62.99
2019-05-13T06:36:26.391Z,63.50
2019-05-13T06:37:26.344Z,62.27
2019-05-13T06:38:26.332Z,61.55
2019-05-13T06:39:26.321Z,62.58
2019-05-13T06:40:26.314Z,62.88
2019-05-13T06:41:26.296Z,62.76
2019-05-13T06:42:26.314Z,62.04
2019-05-13T06:43:26.330Z,61.52
2019-05-13T06:44:26.264Z,61.73
2019-05-13T06:45:26.256Z,61.73
2019-05-13T06:46:26.247Z,60.19
2019-05-13T06:47:26.230Z,61.73
2019-05-13T06:48:26.278Z,61.73
2019-05-13T06:49:26.403Z,61.93
2019-05-13T06:50:26.396Z,61.11
2019-05-13T06:51:26.302Z,61.11
2019-05-13T06:52:26.506Z,61.83
2019-05-13T06:53:26.166Z,61.29
2019-05-13T06:54:26.173Z,60.27
2019-05-13T06:55:26.312Z,60.78
2019-05-13T06:56:26.137Z,60.06
2019-05-13T06:57:26.378Z,61.70
2019-05-13T06:58:26.149Z,60.44
2019-05-13T06:59:26.149Z,60.75
2019-05-13T07:00:26.171Z,60.65
2019-05-13T07:01:26.144Z,59.53
2019-05-13T07:02:26.069Z,59.73
2019-05-13T07:03:26.057Z,59.09
2019-05-13T07:04:26.060Z,60.11
2019-05-13T07:05:26.158Z,59.42
2019-05-13T07:06:27.481Z,59.60
2019-05-13T07:07:26.046Z,59.83
2019-05-13T07:08:26.005Z,60.62
2019-05-13T07:09:26.013Z,59.39
2019-05-13T07:10:25.996Z,58.58
2019-05-13T07:11:25.995Z,59.39
2019-05-13T07:12:26.011Z,58.58
2019-05-13T07:13:25.952Z,57.97
2019-05-13T07:14:25.982Z,58.65
2019-05-13T07:15:25.955Z,58.14
2019-05-13T07:16:25.925Z,57.93
2019-05-13T07:17:25.905Z,58.11
2019-05-13T07:18:25.895Z,56.99
2019-05-13T07:19:25.886Z,57.50
2019-05-13T07:20:25.869Z,57.91
2019-05-13T07:21:25.863Z,57.91
2019-05-13T07:22:25.850Z,57.50
2019-05-13T07:23:25.844Z,58.93
2019-05-13T07:24:25.820Z,58.32
2019-05-13T07:25:25.830Z,56.27
2019-05-13T07:26:25.798Z,56.38
2019-05-13T07:27:25.812Z,56.68
2019-05-13T07:28:25.796Z,56.58
2019-05-13T07:29:25.771Z,57.88
2019-05-13T07:30:25.750Z,56.56
2019-05-13T07:31:25.749Z,56.43
2019-05-13T07:32:25.733Z,57.75
2019-05-13T07:33:25.725Z,56.63
2019-05-13T07:34:25.730Z,55.69
2019-05-13T07:35:25.701Z,55.58
2019-05-13T07:36:25.698Z,55.91
2019-05-13T07:37:25.715Z,56.02
2019-05-13T07:38:25.675Z,55.69
2019-05-13T07:39:25.664Z,53.96
2019-05-13T07:40:25.642Z,54.36
2019-05-13T07:41:36.407Z,55.38
2019-05-13T07:42:26.637Z,54.26
2019-05-13T07:43:25.605Z,54.16
2019-05-13T07:44:25.595Z,54.05
2019-05-13T07:45:25.587Z,53.88
2019-05-13T07:46:25.589Z,55.00
2019-05-13T07:47:25.582Z,54.90
2019-05-13T07:48:27.777Z,54.46
2019-05-13T07:49:25.546Z,53.85
2019-05-13T07:50:25.531Z,54.44
2019-05-13T07:51:25.521Z,53.01
2019-05-13T07:52:25.515Z,52.60
2019-05-13T07:53:25.516Z,52.73
2019-05-13T07:54:25.503Z,52.83
2019-05-13T07:55:25.477Z,52.91
2019-05-13T07:56:25.489Z,50.97
2019-05-13T07:57:25.454Z,51.25
2019-05-13T07:58:25.459Z,50.74
2019-05-13T07:59:25.432Z,50.44
2019-05-13T08:00:25.425Z,47.87
2019-05-13T08:01:25.431Z,47.87
2019-05-13T08:02:25.398Z,47.66
2019-05-13T08:03:25.582Z,46.44
2019-05-13T08:04:26.745Z,47.77
2019-05-13T08:05:25.369Z,46.34
2019-05-13T08:06:25.346Z,47.58
2019-05-13T08:07:25.346Z,48.48
2019-05-13T08:08:25.329Z,48.38
2019-05-13T08:09:25.334Z,49.50
2019-05-13T08:10:25.306Z,47.85
2019-05-13T08:11:25.297Z,45.48
2019-05-13T08:12:25.297Z,44.46
2019-05-13T08:13:25.270Z,42.94
2019-05-13T08:14:25.265Z,43.65
2019-05-13T08:15:25.255Z,44.26
2019-05-13T08:16:25.238Z,44.69
2019-05-13T08:17:25.247Z,44.67
2019-05-13T08:18:25.217Z,45.71
2019-05-13T08:19:25.211Z,44.59
2019-05-13T08:20:25.208Z,45.48
2019-05-13T08:21:25.187Z,41.80
2019-05-13T08:22:25.167Z,39.46
2019-05-13T08:23:25.161Z,39.28
2019-05-13T08:24:25.149Z,39.17
2019-05-13T08:25:25.144Z,40.70
2019-05-13T08:26:25.133Z,40.48
2019-05-13T08:27:30.214Z,37.61
2019-05-13T08:28:26.108Z,38.92
2019-05-13T08:29:25.101Z,39.40
2019-05-13T08:30:25.122Z,40.48
2019-05-13T08:31:25.075Z,39.45
2019-05-13T08:32:25.072Z,38.81
2019-05-13T08:33:25.063Z,38.50
2019-05-13T08:34:25.034Z,38.50
2019-05-13T08:35:25.024Z,35.95
2019-05-13T08:36:25.015Z,34.94
2019-05-13T08:37:25.006Z,34.72
2019-05-13T08:38:24.994Z,34.62
2019-05-13T08:39:26.752Z,36.34
2019-05-13T08:40:25.976Z,36.43
2019-05-13T08:41:24.979Z,34.80
2019-05-13T08:42:25.079Z,34.82
2019-05-13T08:43:24.941Z,36.87
2019-05-13T08:44:24.952Z,34.23
2019-05-13T08:45:24.925Z,34.85
2019-05-13T08:46:24.929Z,36.27
2019-05-13T08:47:24.896Z,37.18
2019-05-13T08:48:24.882Z,37.16
2019-05-13T08:49:24.879Z,36.98
2019-05-13T08:50:24.859Z,35.06
2019-05-13T08:51:24.852Z,33.33
2019-05-13T08:52:24.838Z,33.42
2019-05-13T08:53:24.840Z,34.42
2019-05-13T08:54:24.819Z,33.29
2019-05-13T08:55:24.804Z,33.40
2019-05-13T08:56:24.795Z,34.42
2019-05-13T08:57:24.800Z,34.92
2019-05-13T08:58:24.771Z,35.14
2019-05-13T08:59:24.760Z,35.95
2019-05-13T09:00:24.770Z,35.83
2019-05-13T09:01:24.753Z,35.21
2019-05-13T09:02:24.760Z,33.17
2019-05-13T09:03:24.715Z,32.55
2019-05-13T09:04:24.701Z,33.15
2019-05-13T09:05:24.693Z,31.84
2019-05-13T09:06:24.701Z,31.05
2019-05-13T09:07:24.694Z,30.21
2019-05-13T09:08:24.684Z,31.62
2019-05-13T09:09:24.651Z,29.69
2019-05-13T09:10:24.653Z,26.76
2019-05-13T09:11:24.629Z,28.70
2019-05-13T09:12:32.252Z,26.38
2019-05-13T09:13:25.620Z,27.08
2019-05-13T09:14:24.599Z,26.87
2019-05-13T09:15:24.592Z,30.83
2019-05-13T09:16:24.746Z,31.54
2019-05-13T09:17:24.566Z,31.23
2019-05-13T09:18:24.558Z,31.76
2019-05-13T09:19:24.542Z,30.47
2019-05-13T09:20:24.558Z,29.43
2019-05-13T09:21:24.516Z,30.43
2019-05-13T09:22:24.512Z,31.73
2019-05-13T09:23:24.496Z,32.72
2019-05-13T09:24:33.035Z,32.59
2019-05-13T09:25:25.486Z,32.37
2019-05-13T09:26:24.476Z,33.25
2019-05-13T09:27:24.455Z,32.24
2019-05-13T09:28:24.442Z,31.56
2019-05-13T09:29:24.452Z,32.11
2019-05-13T09:30:27.264Z,31.25
2019-05-13T09:31:24.434Z,34.03
2019-05-13T09:32:24.415Z,33.86
2019-05-13T09:33:24.390Z,34.91
2019-05-13T09:34:24.380Z,36.95
2019-05-13T09:35:24.367Z,38.09
2019-05-13T09:36:24.365Z,37.90
2019-05-13T09:37:24.350Z,38.20
2019-05-13T09:38:24.329Z,38.93
2019-05-13T09:39:24.368Z,39.64
2019-05-13T09:40:24.322Z,38.71
2019-05-13T09:41:24.317Z,37.19
2019-05-13T09:42:24.326Z,36.56
2019-05-13T09:43:24.278Z,36.87
2019-05-13T09:44:24.269Z,36.16
2019-05-13T09:45:24.251Z,34.94
2019-05-13T09:46:24.241Z,34.12
2019-05-13T09:47:28.235Z,35.64
2019-05-13T09:48:24.240Z,34.74
2019-05-13T09:49:24.210Z,34.12
2019-05-13T09:50:29.430Z,34.94
2019-05-13T09:51:25.194Z,36.76
2019-05-13T09:52:24.231Z,36.05
2019-05-13T09:53:24.172Z,37.68
2019-05-13T09:54:24.151Z,35.95
2019-05-13T09:55:29.009Z,35.02
2019-05-13T09:56:25.133Z,36.24
2019-05-13T09:57:24.132Z,36.54
2019-05-13T09:58:24.116Z,36.04
2019-05-13T09:59:24.107Z,34.41
2019-05-13T10:00:24.084Z,35.34
2019-05-13T10:01:24.079Z,35.75
2019-05-13T10:02:24.123Z,36.36
2019-05-13T10:03:29.138Z,36.36
2019-05-13T10:04:25.038Z,36.46
2019-05-13T10:05:24.040Z,36.38
2019-05-13T10:06:24.026Z,36.36
2019-05-13T10:07:24.008Z,36.78
2019-05-13T10:08:24.002Z,36.87
2019-05-13T10:09:23.991Z,36.38
2019-05-13T10:10:23.983Z,35.77
2019-05-13T10:11:23.971Z,36.07
2019-05-13T10:12:24.688Z,35.68
2019-05-13T10:13:23.947Z,35.58
2019-05-13T10:14:23.932Z,37.12
2019-05-13T10:15:23.951Z,35.90
2019-05-13T10:16:23.911Z,36.21
2019-05-13T10:17:23.900Z,35.90
2019-05-13T10:18:23.899Z,35.70
2019-05-13T10:19:23.878Z,34.58
2019-05-13T10:20:23.871Z,36.61
2019-05-13T10:21:23.857Z,36.29
2019-05-13T10:22:23.844Z,36.29
2019-05-13T10:23:23.830Z,36.38
2019-05-13T10:24:23.825Z,34.75
2019-05-13T10:25:23.825Z,33.83
2019-05-13T10:26:23.797Z,33.63
2019-05-13T10:27:23.785Z,33.72
2019-05-13T10:28:23.793Z,33.38
2019-05-13T10:29:23.793Z,34.26
2019-05-13T10:30:24.084Z,34.33
2019-05-13T10:31:23.733Z,34.30
2019-05-13T10:32:23.737Z,33.09
2019-05-13T10:33:23.714Z,32.90
2019-05-13T10:34:23.705Z,32.41
2019-05-13T10:35:23.691Z,32.73
2019-05-13T10:36:23.691Z,32.74
2019-05-13T10:37:23.680Z,33.57
2019-05-13T10:38:27.423Z,33.57
2019-05-13T10:39:23.648Z,35.00
2019-05-13T10:40:23.654Z,34.50
2019-05-13T10:41:23.638Z,36.02
2019-05-13T10:42:23.622Z,35.92
2019-05-13T10:43:31.155Z,34.19
2019-05-13T10:44:24.587Z,34.53
2019-05-13T10:45:23.587Z,35.95
2019-05-13T10:46:23.581Z,36.68
2019-05-13T10:47:23.582Z,36.47
2019-05-13T10:48:23.558Z,36.78
2019-05-13T10:49:23.538Z,37.59
2019-05-13T10:50:27.762Z,37.48
2019-05-13T10:51:23.521Z,37.05
2019-05-13T10:52:23.515Z,36.75
2019-05-13T10:53:23.495Z,36.93
2019-05-13T10:54:23.494Z,37.59
2019-05-13T10:55:23.493Z,37.03
2019-05-13T10:56:23.497Z,36.69
2019-05-13T10:57:23.447Z,34.95
2019-05-13T10:58:23.672Z,34.03
2019-05-13T10:59:23.427Z,33.95
2019-05-13T11:00:23.417Z,35.88
2019-05-13T11:01:23.402Z,34.30
2019-05-13T11:02:23.397Z,35.65
2019-05-13T11:03:23.445Z,34.55
2019-05-13T11:04:23.425Z,36.39
2019-05-13T11:05:23.368Z,36.82
2019-05-13T11:06:23.344Z,36.10
2019-05-13T11:07:23.355Z,34.67
2019-05-13T11:08:23.333Z,35.99
2019-05-13T11:09:23.316Z,34.65
2019-05-13T11:10:23.301Z,34.65
2019-05-13T11:11:23.295Z,37.16
2019-05-13T11:12:28.070Z,34.70
2019-05-13T11:13:24.275Z,36.27
2019-05-13T11:14:23.269Z,34.12
2019-05-13T11:15:23.251Z,34.10
2019-05-13T11:16:23.235Z,32.10
2019-05-13T11:17:30.889Z,32.72
2019-05-13T11:18:24.632Z,33.54
2019-05-13T11:19:23.510Z,33.67
2019-05-13T11:20:23.209Z,34.20
2019-05-13T11:21:23.191Z,35.53
2019-05-13T11:22:23.173Z,34.64
2019-05-13T11:23:23.603Z,34.05
2019-05-13T11:24:23.145Z,34.05
2019-05-13T11:25:23.148Z,34.48
2019-05-13T11:26:23.122Z,34.39
2019-05-13T11:27:23.543Z,35.33
2019-05-13T11:28:23.101Z,36.25
2019-05-13T11:29:23.357Z,36.66
2019-05-13T11:30:23.102Z,36.66
2019-05-13T11:31:23.067Z,36.76
2019-05-13T11:34:43.687Z,37.26
2019-05-13T11:35:43.681Z,36.32
2019-05-13T11:36:43.699Z,34.39
2019-05-13T11:37:43.671Z,34.19
2019-05-13T11:38:43.637Z,33.23
2019-05-13T11:39:43.652Z,32.87
2019-05-13T11:40:43.614Z,33.07
2019-05-13T11:41:43.596Z,31.55
2019-05-13T11:42:43.585Z,31.82
2019-05-13T11:43:43.575Z,30.02
2019-05-13T11:44:43.563Z,32.46
2019-05-13T11:45:43.555Z,32.79
2019-05-13T11:46:43.546Z,32.61
2019-05-13T11:47:43.529Z,33.03
2019-05-13T11:48:43.533Z,33.54
2019-05-13T11:49:45.483Z,31.90
2019-05-13T11:50:50.079Z,31.58
2019-05-13T11:51:44.485Z,33.78
2019-05-13T11:52:43.549Z,33.33
2019-05-13T11:53:43.465Z,32.67
2019-05-13T11:54:43.455Z,28.40
2019-05-13T11:55:43.442Z,30.10
2019-05-13T11:57:44.673Z,28.16
2019-05-13T11:58:43.413Z,29.27
2019-05-13T11:59:43.406Z,28.85
2019-05-13T12:00:43.387Z,27.91
2019-05-13T12:01:43.400Z,26.51
2019-05-13T12:02:50.251Z,26.53
2019-05-13T12:03:44.362Z,26.97
2019-05-13T12:04:43.989Z,27.30
2019-05-13T12:05:43.337Z,28.85
2019-05-13T12:06:48.639Z,29.79
2019-05-13T12:07:44.314Z,29.91
2019-05-13T12:09:44.296Z,29.56
2019-05-13T12:10:44.096Z,29.33
2019-05-13T12:11:43.299Z,28.70
2019-05-13T12:12:44.069Z,26.91
2019-05-13T12:13:43.244Z,27.56
2019-05-13T12:15:04.889Z,28.28
2019-05-13T12:15:49.321Z,29.47
2019-05-13T12:16:44.228Z,29.36
2019-05-13T12:17:43.203Z,28.83
2019-05-13T12:18:43.928Z,26.18
2019-05-13T12:19:43.191Z,24.16
2019-05-13T12:20:43.174Z,25.95
2019-05-13T12:21:46.483Z,24.23
2019-05-13T12:22:43.213Z,26.53
2019-05-13T12:23:43.142Z,25.73
2019-05-13T12:24:43.124Z,24.73
2019-05-13T12:25:43.959Z,24.71
2019-05-13T12:26:43.670Z,25.62
2019-05-13T12:27:43.097Z,26.90
2019-05-13T12:28:43.090Z,25.87
2019-05-13T12:29:43.302Z,25.05
2019-05-13T12:30:43.108Z,24.37
2019-05-13T12:31:43.055Z,23.88
2019-05-13T12:32:43.908Z,24.58
2019-05-13T12:33:44.063Z,23.07
2019-05-13T12:34:45.942Z,23.88
2019-05-13T12:35:43.013Z,23.58
2019-05-13T12:36:43.575Z,24.68
2019-05-13T12:37:43.003Z,23.36
2019-05-13T12:38:44.367Z,24.96
2019-05-13T12:39:43.768Z,24.98
2019-05-13T12:40:43.183Z,25.12
2019-05-13T12:41:43.138Z,25.45
2019-05-13T12:42:46.933Z,26.39
2019-05-13T12:43:42.925Z,26.52
2019-05-13T12:45:00.424Z,26.75
2019-05-13T12:45:43.908Z,28.80
2019-05-13T12:46:49.930Z,27.23
2019-05-13T12:47:43.887Z,26.09
2019-05-13T12:48:42.870Z,27.50
2019-05-13T12:49:44.041Z,28.11
2019-05-13T12:50:43.406Z,27.51
2019-05-13T12:51:44.010Z,26.72
2019-05-13T12:52:43.783Z,25.75
2019-05-13T12:53:43.516Z,26.50
2019-05-13T12:54:44.338Z,28.01
2019-05-13T12:55:42.794Z,28.85
2019-05-13T12:56:42.822Z,28.95